Accueil
METAR-TAF:

METAR-TAF

Aéroports :

Aérodrome de Samedan-Engadin

Saint-Moritz, Suisse

latitude: 46-32-03N, longitude: 9-53-03E, altitude: 1707 m

Observation

Le bulletin a été fait il y a 6 minutes, à 01:20 UTC
Vent 1 kt de direction variable
Température 5°C
Humidité 93%
Pression 1019 hPa
Visibilité 10 km ou plus
Ciel couvert à une hauteur de 4600 ft

METAR: LSZS 210120Z AUTO VRB01KT 9999 OVC046 05/04 Q1019

Heure: 03:26 (01:26 UTC)

Prévision

Le bulletin a été fait il y a 11 heures et 1 minutes, à 14:25 UTC
Prévision valable du 20 à 15 UTC au 20 à 24 UTC
Vent 8 kt de sud-ouest
Visibilité 10 km ou plus
Nuages épars à une hauteur de 3000 ft
Nuages fragmentés à une hauteur de 5000 ft
Probabilité 40% :
Temporairement
du 20 à 15 UTC au 20 à 17 UTC
Quelques nuages à une hauteur de 3000 ft, Cumulus congestus.
averses de pluie

TAF: LSZS 201425Z 2015/2024 22008KT 9999 SCT030 BKN050 TX12/2015Z PROB40 TEMPO 2015/2017 SHRA FEW030TCU

Observations et prévisions météorologiques de plus de 4000 aéroports (messages METAR et TAF).

Les stations disponibles sont représentées par des disques jaunes et rouges sur la carte.

Passer la souris dessus pour voir le nom de la station.

Cliquer dessus pour voir les observations et prévisions météorologiques.

Pour changer de carte: cliquez sur les boutons verts avec une croix noire pour zoomer, sur le bouton vert avec un tiret pour effectuer un zoom arrière, ou sur les flèches vertes pour les cartes adjacentes.


METAR-TAF: